Grindstone Creek Rancheria, California
Current Conditions -  °F | °C
As of 2:48 PM on Monday 22 Dec 2014 (Local Time) from KCIC Reporting Station
Few Clouds Few Clouds  
Wind Chill: 64°   Ceiling: Unl
Heat Index: 64°   Visibility: 80mi
Dew Point: 55°   Wind: 12mph
Humidity: 73%   Direction: 310°NW
Pressure: 30.19"   Gusts: NA
Location:  39.5562°N, 122.604°W
Report Text: KCIC 222248Z 31010KT 80SM FEW070 18/13 A3019
Loading
Personal Weather Stations






























Interactive Weather Map New forecast layout! Learn more

10-Day Weather Forecast

Advertisements
Track Severe Weather on mobile